sensor_id;sensor_type;location;lat;lon;timestamp;pressure;altitude;pressure_sealevel;temperature;humidity
31669;BME280;19201;55.712;37.490;2022-07-01T07:06:12;99946.63;;;24.95;38.60
31669;BME280;19201;55.712;37.490;2022-07-01T07:08:38;99946.28;;;25.16;37.95
31669;BME280;19201;55.712;37.490;2022-07-01T07:11:04;99943.63;;;25.39;37.27
31669;BME280;19201;55.712;37.490;2022-07-01T07:13:29;99943.75;;;25.62;37.15
31669;BME280;19201;55.712;37.490;2022-07-01T07:15:55;99952.16;;;25.86;36.02
31669;BME280;19201;55.712;37.490;2022-07-01T07:18:21;99947.69;;;26.00;34.27
31669;BME280;19201;55.712;37.490;2022-07-01T07:20:47;99952.09;;;26.25;36.12
31669;BME280;19201;55.712;37.490;2022-07-01T07:23:13;99955.16;;;26.39;35.32
31669;BME280;19201;55.712;37.490;2022-07-01T07:25:39;99957.72;;;26.51;33.45
31669;BME280;19201;55.712;37.490;2022-07-01T07:28:05;99957.09;;;26.62;33.36
31669;BME280;19201;55.712;37.490;2022-07-01T07:30:31;99960.16;;;26.76;33.75
31669;BME280;19201;55.712;37.490;2022-07-01T07:32:56;99963.91;;;26.88;31.17
31669;BME280;19201;55.712;37.490;2022-07-01T07:35:22;99963.72;;;27.00;32.37
31669;BME280;19201;55.712;37.490;2022-07-01T07:37:47;99961.06;;;27.11;31.76
31669;BME280;19201;55.712;37.490;2022-07-01T07:40:13;99966.75;;;27.18;30.62
31669;BME280;19201;55.712;37.490;2022-07-01T07:42:44;99969.63;;;27.25;31.95
31669;BME280;19201;55.712;37.490;2022-07-01T07:45:10;99965.31;;;27.31;30.01
31669;BME280;19201;55.712;37.490;2022-07-01T07:47:37;99972.66;;;27.40;30.78
31669;BME280;19201;55.712;37.490;2022-07-01T07:50:04;99972.28;;;27.41;30.51
31669;BME280;19201;55.712;37.490;2022-07-01T07:52:29;99973.19;;;27.49;30.38
31669;BME280;19201;55.712;37.490;2022-07-01T07:54:55;99971.19;;;27.49;30.63
31669;BME280;19201;55.712;37.490;2022-07-01T07:57:21;99985.94;;;27.50;30.18
31669;BME280;19201;55.712;37.490;2022-07-01T07:59:46;99971.59;;;27.51;29.58
31669;BME280;19201;55.712;37.490;2022-07-01T08:02:12;99974.09;;;27.60;30.84
31669;BME280;19201;55.712;37.490;2022-07-01T08:04:38;99988.94;;;27.64;30.45
31669;BME280;19201;55.712;37.490;2022-07-01T08:07:04;99990.56;;;27.69;30.00
31669;BME280;19201;55.712;37.490;2022-07-01T08:09:31;99984.25;;;27.72;30.14
31669;BME280;19201;55.712;37.490;2022-07-01T08:12:03;99988.81;;;27.87;29.94
31669;BME280;19201;55.712;37.490;2022-07-01T08:14:29;99985.16;;;27.83;30.25
31669;BME280;19201;55.712;37.490;2022-07-01T08:16:54;99993.59;;;27.87;29.50
31669;BME280;19201;55.712;37.490;2022-07-01T08:19:20;99988.00;;;27.87;29.09
31669;BME280;19201;55.712;37.490;2022-07-01T08:21:45;99986.53;;;27.97;28.99
31669;BME280;19201;55.712;37.490;2022-07-01T08:24:11;99995.78;;;28.01;28.78
31669;BME280;19201;55.712;37.490;2022-07-01T08:26:37;99996.22;;;28.06;29.89
31669;BME280;19201;55.712;37.490;2022-07-01T08:29:03;100001.06;;;28.10;29.28
31669;BME280;19201;55.712;37.490;2022-07-01T08:31:29;100003.13;;;28.16;30.38
31669;BME280;19201;55.712;37.490;2022-07-01T08:33:55;100013.50;;;28.16;28.71
31669;BME280;19201;55.712;37.490;2022-07-01T08:36:20;100001.19;;;28.20;28.31
31669;BME280;19201;55.712;37.490;2022-07-01T08:38:46;100001.63;;;28.26;29.14
31669;BME280;19201;55.712;37.490;2022-07-01T08:41:13;99997.72;;;28.34;29.40
31669;BME280;19201;55.712;37.490;2022-07-01T08:43:39;100002.56;;;28.37;30.23
31669;BME280;19201;55.712;37.490;2022-07-01T08:46:07;100012.66;;;28.49;29.45
31669;BME280;19201;55.712;37.490;2022-07-01T08:48:33;100007.81;;;28.46;29.75
31669;BME280;19201;55.712;37.490;2022-07-01T08:50:59;99996.22;;;28.44;29.78
31669;BME280;19201;55.712;37.490;2022-07-01T08:53:30;100018.56;;;28.40;29.31
31669;BME280;19201;55.712;37.490;2022-07-01T08:55:55;100014.91;;;28.36;28.90
31669;BME280;19201;55.712;37.490;2022-07-01T08:58:39;100001.38;;;28.38;29.25
31669;BME280;19201;55.712;37.490;2022-07-01T09:01:18;100012.72;;;28.56;29.92
31669;BME280;19201;55.712;37.490;2022-07-01T09:03:46;100004.84;;;28.28;29.59
31669;BME280;19201;55.712;37.490;2022-07-01T09:06:14;100015.75;;;28.40;30.57
31669;BME280;19201;55.712;37.490;2022-07-01T09:08:41;100011.34;;;28.39;31.13
31669;BME280;19201;55.712;37.490;2022-07-01T09:11:26;100002.84;;;28.66;30.15
31669;BME280;19201;55.712;37.490;2022-07-01T09:14:09;100008.44;;;28.66;29.64
31669;BME280;19201;55.712;37.490;2022-07-01T09:16:55;100003.63;;;28.63;29.82
31669;BME280;19201;55.712;37.490;2022-07-01T09:19:24;100011.72;;;28.38;30.13
31669;BME280;19201;55.712;37.490;2022-07-01T09:21:55;100013.44;;;28.50;29.55
31669;BME280;19201;55.712;37.490;2022-07-01T09:24:31;100009.47;;;28.51;28.99
31669;BME280;19201;55.712;37.490;2022-07-01T09:26:59;100017.72;;;28.36;28.65
31669;BME280;19201;55.712;37.490;2022-07-01T09:29:33;100016.59;;;28.45;28.92
31669;BME280;19201;55.712;37.490;2022-07-01T09:32:05;100017.84;;;28.51;28.97
31669;BME280;19201;55.712;37.490;2022-07-01T09:37:00;100013.69;;;28.34;28.29
31669;BME280;19201;55.712;37.490;2022-07-01T09:39:25;100013.28;;;28.35;28.59
31669;BME280;19201;55.712;37.490;2022-07-01T09:41:55;100022.59;;;28.43;28.20
31669;BME280;19201;55.712;37.490;2022-07-01T09:44:21;100017.63;;;28.29;27.67
31669;BME280;19201;55.712;37.490;2022-07-01T09:46:57;100028.25;;;28.54;27.54
31669;BME280;19201;55.712;37.490;2022-07-01T09:49:23;100023.66;;;28.31;28.19
31669;BME280;19201;55.712;37.490;2022-07-01T09:51:50;100020.47;;;28.33;28.19
31669;BME280;19201;55.712;37.490;2022-07-01T09:54:17;100027.66;;;28.30;27.64
31669;BME280;19201;55.712;37.490;2022-07-01T09:56:43;100028.09;;;28.36;28.53
31669;BME280;19201;55.712;37.490;2022-07-01T09:59:09;100027.34;;;28.39;28.64
31669;BME280;19201;55.712;37.490;2022-07-01T10:01:36;100030.59;;;28.45;29.15
31669;BME280;19201;55.712;37.490;2022-07-01T10:04:05;100034.22;;;28.49;28.82
31669;BME280;19201;55.712;37.490;2022-07-01T10:07:18;100032.69;;;28.55;28.69
31669;BME280;19201;55.712;37.490;2022-07-01T10:12:29;100020.91;;;28.76;28.86
31669;BME280;19201;55.712;37.490;2022-07-01T10:14:57;100030.66;;;28.52;28.64
31669;BME280;19201;55.712;37.490;2022-07-01T10:17:35;100026.47;;;28.72;28.78
31669;BME280;19201;55.712;37.490;2022-07-01T10:20:10;100026.44;;;28.69;28.43
31669;BME280;19201;55.712;37.490;2022-07-01T10:22:37;100020.25;;;28.52;28.18
31669;BME280;19201;55.712;37.490;2022-07-01T10:31:05;100031.78;;;28.85;28.46
31669;BME280;19201;55.712;37.490;2022-07-01T10:41:42;100029.25;;;28.72;28.00
31669;BME280;19201;55.712;37.490;2022-07-01T10:44:20;100033.13;;;28.61;28.21
31669;BME280;19201;55.712;37.490;2022-07-01T10:46:48;100033.19;;;28.64;28.18
31669;BME280;19201;55.712;37.490;2022-07-01T10:49:17;100031.22;;;28.65;27.73
31669;BME280;19201;55.712;37.490;2022-07-01T10:51:55;100026.19;;;28.88;28.16
31669;BME280;19201;55.712;37.490;2022-07-01T10:57:19;100021.88;;;28.98;28.30
31669;BME280;19201;55.712;37.490;2022-07-01T10:59:47;100014.50;;;28.72;28.16
31669;BME280;19201;55.712;37.490;2022-07-01T11:02:32;100022.66;;;28.95;28.12
31669;BME280;19201;55.712;37.490;2022-07-01T11:05:04;100020.97;;;28.83;27.97
31669;BME280;19201;55.712;37.490;2022-07-01T11:07:34;100019.34;;;28.82;28.19
31669;BME280;19201;55.712;37.490;2022-07-01T11:10:02;100022.16;;;28.82;27.94
31669;BME280;19201;55.712;37.490;2022-07-01T11:12:29;100024.53;;;28.80;27.65
31669;BME280;19201;55.712;37.490;2022-07-01T11:14:56;100028.53;;;28.83;27.90
31669;BME280;19201;55.712;37.490;2022-07-01T11:17:24;100019.75;;;28.81;28.11
31669;BME280;19201;55.712;37.490;2022-07-01T11:19:52;100023.78;;;28.87;27.88
31669;BME280;19201;55.712;37.490;2022-07-01T11:22:34;100023.59;;;29.17;28.09
31669;BME280;19201;55.712;37.490;2022-07-01T11:25:04;100015.03;;;28.92;27.94
31669;BME280;19201;55.712;37.490;2022-07-01T11:27:32;100021.81;;;28.91;28.00
31669;BME280;19201;55.712;37.490;2022-07-01T11:29:59;100015.03;;;28.92;27.65
31669;BME280;19201;55.712;37.490;2022-07-01T11:32:36;100020.81;;;29.17;27.85
31669;BME280;19201;55.712;37.490;2022-07-01T11:35:04;100019.91;;;29.02;27.93
31669;BME280;19201;55.712;37.490;2022-07-01T11:37:50;100014.28;;;28.99;27.45
31669;BME280;19201;55.712;37.490;2022-07-01T11:40:35;100019.09;;;29.02;27.46
31669;BME280;19201;55.712;37.490;2022-07-01T11:43:00;100007.50;;;29.00;27.13
31669;BME280;19201;55.712;37.490;2022-07-01T11:45:26;100014.72;;;29.04;27.66
31669;BME280;19201;55.712;37.490;2022-07-01T11:47:52;100011.91;;;29.04;27.41
31669;BME280;19201;55.712;37.490;2022-07-01T11:50:18;100018.75;;;29.07;27.25
31669;BME280;19201;55.712;37.490;2022-07-01T11:52:45;100024.75;;;29.09;27.32
31669;BME280;19201;55.712;37.490;2022-07-01T11:55:11;100034.38;;;29.11;26.97
31669;BME280;19201;55.712;37.490;2022-07-01T11:57:37;100026.41;;;29.14;27.23
31669;BME280;19201;55.712;37.490;2022-07-01T12:00:11;100025.75;;;29.35;27.48
31669;BME280;19201;55.712;37.490;2022-07-01T12:02:37;100028.03;;;29.18;27.14
31669;BME280;19201;55.712;37.490;2022-07-01T12:05:03;100026.09;;;29.26;27.60
31669;BME280;19201;55.712;37.490;2022-07-01T12:07:30;100023.69;;;29.24;27.33
31669;BME280;19201;55.712;37.490;2022-07-01T12:09:57;100024.13;;;29.26;27.16
31669;BME280;19201;55.712;37.490;2022-07-01T12:12:23;100034.94;;;29.32;27.44
31669;BME280;19201;55.712;37.490;2022-07-01T12:14:55;100031.00;;;29.40;27.03
31669;BME280;19201;55.712;37.490;2022-07-01T12:17:21;100028.16;;;29.36;27.35
31669;BME280;19201;55.712;37.490;2022-07-01T12:19:48;100029.81;;;29.41;27.40
31669;BME280;19201;55.712;37.490;2022-07-01T12:22:17;100031.81;;;29.48;27.25
31669;BME280;19201;55.712;37.490;2022-07-01T12:24:47;100029.03;;;29.48;27.19
31669;BME280;19201;55.712;37.490;2022-07-01T12:27:14;100031.44;;;29.49;27.35
31669;BME280;19201;55.712;37.490;2022-07-01T12:32:05;100033.03;;;29.50;27.23
31669;BME280;19201;55.712;37.490;2022-07-01T12:37:24;100056.78;;;29.74;26.65
31669;BME280;19201;55.712;37.490;2022-07-01T12:39:56;100038.06;;;29.86;26.71
31669;BME280;19201;55.712;37.490;2022-07-01T12:45:02;100042.50;;;29.98;26.44
31669;BME280;19201;55.712;37.490;2022-07-01T12:50:14;100038.56;;;30.17;26.56
31669;BME280;19201;55.712;37.490;2022-07-01T12:52:43;100049.66;;;29.91;26.60
31669;BME280;19201;55.712;37.490;2022-07-01T12:55:18;100052.50;;;29.95;26.19
31669;BME280;19201;55.712;37.490;2022-07-01T12:57:49;100048.91;;;29.94;26.39
31669;BME280;19201;55.712;37.490;2022-07-01T13:00:17;100059.63;;;29.82;26.90
31669;BME280;19201;55.712;37.490;2022-07-01T13:02:43;100043.56;;;29.75;26.36
31669;BME280;19201;55.712;37.490;2022-07-01T13:05:10;100064.38;;;29.70;26.86
31669;BME280;19201;55.712;37.490;2022-07-01T13:07:36;100060.72;;;29.62;26.64
31669;BME280;19201;55.712;37.490;2022-07-01T13:10:02;100051.94;;;29.64;27.03
31669;BME280;19201;55.712;37.490;2022-07-01T13:12:28;100058.31;;;29.61;26.80
31669;BME280;19201;55.712;37.490;2022-07-01T13:14:54;100056.72;;;29.60;26.72
31669;BME280;19201;55.712;37.490;2022-07-01T13:17:20;100074.31;;;29.60;26.48
31669;BME280;19201;55.712;37.490;2022-07-01T13:19:47;100068.31;;;29.58;26.81
31669;BME280;19201;55.712;37.490;2022-07-01T13:22:14;100058.31;;;29.57;26.78
31669;BME280;19201;55.712;37.490;2022-07-01T13:24:39;100048.28;;;29.56;26.62
31669;BME280;19201;55.712;37.490;2022-07-01T13:27:05;100050.28;;;29.59;26.44
31669;BME280;19201;55.712;37.490;2022-07-01T13:29:31;100045.50;;;29.63;26.78
31669;BME280;19201;55.712;37.490;2022-07-01T13:31:56;100050.31;;;29.63;26.61
31669;BME280;19201;55.712;37.490;2022-07-01T13:34:22;100056.31;;;29.65;26.62
31669;BME280;19201;55.712;37.490;2022-07-01T13:36:48;100056.38;;;29.69;26.35
31669;BME280;19201;55.712;37.490;2022-07-01T13:39:13;100054.34;;;29.69;26.63
31669;BME280;19201;55.712;37.490;2022-07-01T13:41:39;100055.16;;;29.66;26.70
31669;BME280;19201;55.712;37.490;2022-07-01T13:44:04;100051.94;;;29.64;26.29
31669;BME280;19201;55.712;37.490;2022-07-01T13:46:30;100069.94;;;29.63;26.22
31669;BME280;19201;55.712;37.490;2022-07-01T13:48:56;100072.31;;;29.61;26.70
31669;BME280;19201;55.712;37.490;2022-07-01T13:51:22;100073.53;;;29.60;25.95
31669;BME280;19201;55.712;37.490;2022-07-01T13:53:47;100074.31;;;29.57;26.56
31669;BME280;19201;55.712;37.490;2022-07-01T13:56:13;100081.09;;;29.56;26.38
31669;BME280;19201;55.712;37.490;2022-07-01T13:58:38;100071.88;;;29.55;26.13
31669;BME280;19201;55.712;37.490;2022-07-01T14:01:04;100081.06;;;29.52;26.39
31669;BME280;19201;55.712;37.490;2022-07-01T14:03:29;100087.50;;;29.53;26.27
31669;BME280;19201;55.712;37.490;2022-07-01T14:05:55;100085.09;;;29.55;26.05
31669;BME280;19201;55.712;37.490;2022-07-01T14:08:20;100078.66;;;29.51;26.14
31669;BME280;19201;55.712;37.490;2022-07-01T14:10:46;100082.28;;;29.51;26.39
31669;BME280;19201;55.712;37.490;2022-07-01T14:13:12;100085.47;;;29.50;26.26
31669;BME280;19201;55.712;37.490;2022-07-01T14:15:37;100087.50;;;29.53;26.24
31669;BME280;19201;55.712;37.490;2022-07-01T14:18:03;100089.06;;;29.54;26.06
31669;BME280;19201;55.712;37.490;2022-07-01T14:20:29;100091.09;;;29.53;26.16
31669;BME280;19201;55.712;37.490;2022-07-01T14:22:55;100082.69;;;29.53;26.38
31669;BME280;19201;55.712;37.490;2022-07-01T14:25:21;100093.09;;;29.53;26.36
31669;BME280;19201;55.712;37.490;2022-07-01T14:27:47;100088.28;;;29.50;25.80
31669;BME280;19201;55.712;37.490;2022-07-01T14:30:14;100083.47;;;29.50;26.05
31669;BME280;19201;55.712;37.490;2022-07-01T14:32:41;100088.28;;;29.50;26.34
31669;BME280;19201;55.712;37.490;2022-07-01T14:35:07;100085.88;;;29.52;26.05
31669;BME280;19201;55.712;37.490;2022-07-01T14:37:32;100081.47;;;29.51;26.53
31669;BME280;19201;55.712;37.490;2022-07-01T14:39:58;100083.47;;;29.50;25.88
31669;BME280;19201;55.712;37.490;2022-07-01T14:42:25;100085.09;;;29.51;26.08
31669;BME280;19201;55.712;37.490;2022-07-01T14:44:51;100082.28;;;29.55;26.53
31669;BME280;19201;55.712;37.490;2022-07-01T14:47:18;100077.91;;;29.57;26.43
31669;BME280;19201;55.712;37.490;2022-07-01T14:49:43;100081.09;;;29.59;26.61
31669;BME280;19201;55.712;37.490;2022-07-01T14:52:10;100080.75;;;29.65;26.30
31669;BME280;19201;55.712;37.490;2022-07-01T14:54:37;100085.63;;;29.82;26.53
31669;BME280;19201;55.712;37.490;2022-07-01T14:57:04;100078.59;;;30.13;25.96
31669;BME280;19201;55.712;37.490;2022-07-01T14:59:30;100079.50;;;30.43;25.71
31669;BME280;19201;55.712;37.490;2022-07-01T15:01:55;100078.75;;;30.60;25.57
31669;BME280;19201;55.712;37.490;2022-07-01T15:04:26;100079.13;;;30.52;25.66
31669;BME280;19201;55.712;37.490;2022-07-01T15:06:51;100074.25;;;30.34;26.42
31669;BME280;19201;55.712;37.490;2022-07-01T15:09:17;100076.63;;;30.21;25.74
31669;BME280;19201;55.712;37.490;2022-07-01T15:11:47;100086.19;;;30.13;26.43
31669;BME280;19201;55.712;37.490;2022-07-01T15:14:13;100080.16;;;30.04;26.68
31669;BME280;19201;55.712;37.490;2022-07-01T15:16:38;100090.16;;;30.01;26.47
31669;BME280;19201;55.712;37.490;2022-07-01T15:19:04;100082.94;;;29.93;26.57
31669;BME280;19201;55.712;37.490;2022-07-01T15:21:30;100090.91;;;29.87;26.66
31669;BME280;19201;55.712;37.490;2022-07-01T15:23:55;100102.47;;;29.82;25.86
31669;BME280;19201;55.712;37.490;2022-07-01T15:26:21;100097.66;;;29.79;26.14
31669;BME280;19201;55.712;37.490;2022-07-01T15:28:47;100109.25;;;29.77;25.90
31669;BME280;19201;55.712;37.490;2022-07-01T15:31:12;100100.81;;;29.74;25.94
31669;BME280;19201;55.712;37.490;2022-07-01T15:33:38;100105.59;;;29.70;26.93
31669;BME280;19201;55.712;37.490;2022-07-01T15:36:04;100107.97;;;29.64;26.05
31669;BME280;19201;55.712;37.490;2022-07-01T15:38:30;100104.31;;;29.56;25.97
31669;BME280;19201;55.712;37.490;2022-07-01T15:40:55;100105.50;;;29.55;26.28
31669;BME280;19201;55.712;37.490;2022-07-01T15:43:21;100112.28;;;29.51;25.90
31669;BME280;19201;55.712;37.490;2022-07-01T15:45:47;100114.63;;;29.45;25.98
31669;BME280;19201;55.712;37.490;2022-07-01T15:48:12;100113.44;;;29.42;26.78
31669;BME280;19201;55.712;37.490;2022-07-01T15:50:40;100123.81;;;29.42;26.43
31669;BME280;19201;55.712;37.490;2022-07-01T15:53:07;100121.41;;;29.37;26.48
31669;BME280;19201;55.712;37.490;2022-07-01T15:55:34;100115.75;;;29.33;25.95
31669;BME280;19201;55.712;37.490;2022-07-01T15:58:00;100124.53;;;29.28;26.82
31669;BME280;19201;55.712;37.490;2022-07-01T16:00:26;100124.91;;;29.26;26.49
31669;BME280;19201;55.712;37.490;2022-07-01T16:02:52;100112.88;;;29.22;26.63
31669;BME280;19201;55.712;37.490;2022-07-01T16:05:18;100126.41;;;29.20;25.94
31669;BME280;19201;55.712;37.490;2022-07-01T16:07:43;100130.78;;;29.18;26.58
31669;BME280;19201;55.712;37.490;2022-07-01T16:10:18;100146.00;;;29.20;25.84
31669;BME280;19201;55.712;37.490;2022-07-01T16:12:48;100150.38;;;29.18;25.88
31669;BME280;19201;55.712;37.490;2022-07-01T16:15:14;100144.38;;;29.12;25.63
31669;BME280;19201;55.712;37.490;2022-07-01T16:17:40;100154.75;;;29.11;26.04
31669;BME280;19201;55.712;37.490;2022-07-01T16:20:09;100152.34;;;29.10;26.08
31669;BME280;19201;55.712;37.490;2022-07-01T16:22:36;100147.47;;;29.03;26.52
31669;BME280;19201;55.712;37.490;2022-07-01T16:25:05;100164.25;;;29.03;26.25
31669;BME280;19201;55.712;37.490;2022-07-01T16:27:34;100154.34;;;29.09;26.54
31669;BME280;19201;55.712;37.490;2022-07-01T16:30:01;100161.03;;;28.98;26.34
31669;BME280;19201;55.712;37.490;2022-07-01T16:32:31;100169.44;;;28.98;26.22
31669;BME280;19201;55.712;37.490;2022-07-01T16:34:57;100162.56;;;28.91;26.39
31669;BME280;19201;55.712;37.490;2022-07-01T16:37:28;100158.66;;;29.03;26.76
31669;BME280;19201;55.712;37.490;2022-07-01T16:40:00;100161.81;;;28.98;27.11
31669;BME280;19201;55.712;37.490;2022-07-01T16:42:29;100161.69;;;28.84;26.58
31669;BME280;19201;55.712;37.490;2022-07-01T16:45:05;100172.97;;;28.94;26.36
31669;BME280;19201;55.712;37.490;2022-07-01T16:47:34;100175.47;;;28.66;26.28
31669;BME280;19201;55.712;37.490;2022-07-01T16:50:04;100173.91;;;28.68;26.69
31669;BME280;19201;55.712;37.490;2022-07-01T16:52:52;100177.47;;;28.65;26.33
31669;BME280;19201;55.712;37.490;2022-07-01T16:55:27;100179.78;;;28.59;26.55
31669;BME280;19201;55.712;37.490;2022-07-01T16:57:58;100181.31;;;28.57;26.91
31669;BME280;19201;55.712;37.490;2022-07-01T17:00:26;100171.97;;;28.42;26.64
31669;BME280;19201;55.712;37.490;2022-07-01T17:02:53;100173.53;;;28.39;27.00
31669;BME280;19201;55.712;37.490;2022-07-01T17:05:19;100178.72;;;28.37;26.62
31669;BME280;19201;55.712;37.490;2022-07-01T17:07:45;100177.09;;;28.36;26.73
31669;BME280;19201;55.712;37.490;2022-07-01T17:10:13;100186.56;;;28.28;26.64
31669;BME280;19201;55.712;37.490;2022-07-01T17:12:40;100177.00;;;28.29;27.09
31669;BME280;19201;55.712;37.490;2022-07-01T17:15:08;100189.34;;;28.24;26.92
31669;BME280;19201;55.712;37.490;2022-07-01T17:17:34;100180.06;;;28.17;27.21
31669;BME280;19201;55.712;37.490;2022-07-01T17:20:00;100175.53;;;28.09;26.84
31669;BME280;19201;55.712;37.490;2022-07-01T17:23:02;100185.88;;;28.35;26.92
31669;BME280;19201;55.712;37.490;2022-07-01T17:25:34;100187.19;;;28.14;26.71
31669;BME280;19201;55.712;37.490;2022-07-01T17:33:39;100194.06;;;27.94;27.71
31669;BME280;19201;55.712;37.490;2022-07-01T17:36:12;100210.53;;;27.99;27.50
31669;BME280;19201;55.712;37.490;2022-07-01T17:38:47;100206.59;;;28.03;27.72
31669;BME280;19201;55.712;37.490;2022-07-01T17:41:40;100210.47;;;28.22;27.67
31669;BME280;19201;55.712;37.490;2022-07-01T17:44:08;100207.47;;;27.81;27.81
31669;BME280;19201;55.712;37.490;2022-07-01T17:46:35;100210.56;;;27.76;27.96
31669;BME280;19201;55.712;37.490;2022-07-01T17:49:03;100208.94;;;27.75;28.13
31669;BME280;19201;55.712;37.490;2022-07-01T17:51:30;100203.84;;;27.53;28.26
31669;BME280;19201;55.712;37.490;2022-07-01T17:53:56;100209.84;;;27.55;28.62
31669;BME280;19201;55.712;37.490;2022-07-01T17:56:23;100210.97;;;27.51;28.71
31669;BME280;19201;55.712;37.490;2022-07-01T17:58:50;100211.38;;;27.53;29.21
31669;BME280;19201;55.712;37.490;2022-07-01T18:01:16;100215.25;;;27.45;28.76
31669;BME280;19201;55.712;37.490;2022-07-01T18:03:44;100215.31;;;27.48;29.15
31669;BME280;19201;55.712;37.490;2022-07-01T18:06:10;100226.91;;;27.27;28.86
31669;BME280;19201;55.712;37.490;2022-07-01T18:08:36;100219.09;;;27.17;29.60
31669;BME280;19201;55.712;37.490;2022-07-01T18:11:11;100226.44;;;27.45;29.44
31669;BME280;19201;55.712;37.490;2022-07-01T18:16:46;100231.44;;;27.35;29.81
31669;BME280;19201;55.712;37.490;2022-07-01T18:22:04;100227.31;;;27.29;31.33
31669;BME280;19201;55.712;37.490;2022-07-01T18:24:35;100223.44;;;27.34;31.03
31669;BME280;19201;55.712;37.490;2022-07-01T18:27:07;100226.34;;;27.41;30.77
31669;BME280;19201;55.712;37.490;2022-07-01T18:29:35;100226.16;;;27.30;29.96
31669;BME280;19201;55.712;37.490;2022-07-01T18:32:06;100224.81;;;27.44;30.48
31669;BME280;19201;55.712;37.490;2022-07-01T18:34:55;100236.25;;;27.62;30.63
31669;BME280;19201;55.712;37.490;2022-07-01T18:37:48;100237.09;;;27.39;31.15
31669;BME280;19201;55.712;37.490;2022-07-01T18:40:14;100245.03;;;27.37;31.09
31669;BME280;19201;55.712;37.490;2022-07-01T18:42:41;100249.72;;;27.33;30.81
31669;BME280;19201;55.712;37.490;2022-07-01T18:45:07;100246.94;;;27.33;31.30
31669;BME280;19201;55.712;37.490;2022-07-01T18:47:34;100256.03;;;27.30;31.39
31669;BME280;19201;55.712;37.490;2022-07-01T18:50:01;100256.88;;;27.30;31.31
31669;BME280;19201;55.712;37.490;2022-07-01T18:52:27;100254.88;;;27.31;31.48
31669;BME280;19201;55.712;37.490;2022-07-01T18:54:52;100253.06;;;27.19;30.62
31669;BME280;19201;55.712;37.490;2022-07-01T18:57:18;100256.72;;;27.23;31.07
31669;BME280;19201;55.712;37.490;2022-07-01T18:59:44;100257.59;;;27.27;31.33
31669;BME280;19201;55.712;37.490;2022-07-01T19:02:12;100263.97;;;27.28;30.94
31669;BME280;19201;55.712;37.490;2022-07-01T19:04:38;100264.13;;;27.15;30.71
31669;BME280;19201;55.712;37.490;2022-07-01T19:07:04;100268.03;;;27.11;30.51
31669;BME280;19201;55.712;37.490;2022-07-01T19:09:30;100264.59;;;27.17;30.97
31669;BME280;19201;55.712;37.490;2022-07-01T19:11:55;100264.22;;;27.19;30.87
31669;BME280;19201;55.712;37.490;2022-07-01T19:14:21;100268.19;;;27.18;30.99
31669;BME280;19201;55.712;37.490;2022-07-01T19:16:46;100272.97;;;27.17;31.15
31669;BME280;19201;55.712;37.490;2022-07-01T19:19:12;100268.63;;;27.20;31.00
31669;BME280;19201;55.712;37.490;2022-07-01T19:21:38;100276.66;;;27.21;30.59
31669;BME280;19201;55.712;37.490;2022-07-01T19:24:06;100280.84;;;27.12;30.67
31669;BME280;19201;55.712;37.490;2022-07-01T19:26:32;100289.78;;;27.21;31.13
31669;BME280;19201;55.712;37.490;2022-07-01T19:28:57;100284.50;;;27.16;30.77
31669;BME280;19201;55.712;37.490;2022-07-01T19:31:23;100284.94;;;27.18;31.12
31669;BME280;19201;55.712;37.490;2022-07-01T19:33:48;100287.44;;;27.23;31.34
31669;BME280;19201;55.712;37.490;2022-07-01T19:36:15;100281.72;;;27.16;31.27
